createdAt,value
2022-07-30T00:00:23.790Z,95042.97
2022-07-30T00:02:52.483Z,95051.59
2022-07-30T00:05:20.243Z,95048.97
2022-07-30T00:07:47.511Z,95046.69
2022-07-30T00:10:14.656Z,95027.31
2022-07-30T00:12:41.959Z,95043.69
2022-07-30T00:15:09.669Z,95043.06
2022-07-30T00:17:36.542Z,95044.66
2022-07-30T00:20:04.659Z,95042.34
2022-07-30T00:22:32.213Z,95019.06
2022-07-30T00:24:59.146Z,95025.91
2022-07-30T00:27:26.587Z,95028.06
2022-07-30T00:29:55.381Z,95001.13
2022-07-30T00:32:22.269Z,95032.94
2022-07-30T00:34:49.167Z,95035.09
2022-07-30T00:37:16.096Z,95037.25
2022-07-30T00:39:43.057Z,95030.56
2022-07-30T00:42:10.012Z,95028.75
2022-07-30T00:44:37.252Z,95030.38
2022-07-30T00:47:08.350Z,95026.22
2022-07-30T00:49:35.141Z,95015.78
2022-07-30T00:52:02.209Z,95024.16
2022-07-30T00:54:29.563Z,95023.44
2022-07-30T00:56:58.213Z,95017.94
2022-07-30T00:59:28.637Z,95009.88
2022-07-30T01:01:55.967Z,95010.34
2022-07-30T01:04:22.793Z,95018.00
2022-07-30T01:06:49.996Z,95013.81
2022-07-30T01:09:16.930Z,95028.09
2022-07-30T01:11:44.262Z,95011.22
2022-07-30T01:14:11.288Z,95010.22
2022-07-30T01:16:41.477Z,95008.09
2022-07-30T01:19:39.011Z,95010.81
2022-07-30T01:22:14.982Z,95012.50
2022-07-30T01:24:56.054Z,95001.50
2022-07-30T01:27:25.455Z,95002.59
2022-07-30T01:29:54.810Z,95006.53
2022-07-30T01:32:25.809Z,95005.28
2022-07-30T01:34:55.763Z,94998.56
2022-07-30T01:37:24.328Z,95007.06
2022-07-30T01:39:52.515Z,95017.00
2022-07-30T01:42:21.708Z,95010.50
2022-07-30T01:44:50.358Z,95008.91
2022-07-30T01:47:20.497Z,95008.16
2022-07-30T01:49:49.557Z,94998.13
2022-07-30T01:52:18.490Z,95017.13
2022-07-30T01:54:48.696Z,95016.34
2022-07-30T01:57:19.587Z,95012.44
2022-07-30T01:59:50.680Z,95005.56
2022-07-30T02:02:19.164Z,94992.53
2022-07-30T02:04:47.003Z,95000.88
2022-07-30T02:07:23.954Z,94985.69
2022-07-30T02:10:10.930Z,94997.25
2022-07-30T02:12:54.629Z,94983.66
2022-07-30T02:15:31.819Z,94994.09
2022-07-30T02:18:18.092Z,94961.19
2022-07-30T02:21:02.632Z,94984.78
2022-07-30T02:23:46.535Z,94977.91
2022-07-30T02:26:18.735Z,94992.66
2022-07-30T02:28:49.571Z,94979.50
2022-07-30T02:31:21.090Z,94982.09
2022-07-30T02:33:50.899Z,94972.09
2022-07-30T02:36:20.298Z,94969.50
2022-07-30T02:38:50.882Z,94978.38
2022-07-30T02:41:22.378Z,94977.59
2022-07-30T02:43:52.369Z,94982.31
2022-07-30T02:46:23.250Z,94985.47
2022-07-30T02:49:22.540Z,94987.31
2022-07-30T02:51:51.671Z,94972.34
2022-07-30T02:54:20.295Z,94956.94
2022-07-30T02:56:49.679Z,94966.34
2022-07-30T02:59:19.993Z,94972.41
2022-07-30T03:01:48.969Z,94959.03
2022-07-30T03:04:20.667Z,94959.63
2022-07-30T03:06:49.640Z,94977.47
2022-07-30T03:09:17.767Z,94967.50
2022-07-30T03:11:46.007Z,94969.81
2022-07-30T03:14:13.037Z,94960.63
2022-07-30T03:16:43.897Z,94968.50
2022-07-30T03:19:12.214Z,94965.34
2022-07-30T03:21:41.519Z,94966.34
2022-07-30T03:24:11.077Z,94973.00
2022-07-30T03:26:40.021Z,94964.91
2022-07-30T03:29:09.698Z,94954.44
2022-07-30T03:31:40.075Z,94983.91
2022-07-30T03:34:08.970Z,94973.91
2022-07-30T03:36:36.463Z,94966.59
2022-07-30T03:39:05.608Z,94982.34
2022-07-30T03:41:32.872Z,94979.16
2022-07-30T03:44:01.379Z,94986.78
2022-07-30T03:46:29.920Z,94981.75
2022-07-30T03:48:57.907Z,94986.97
2022-07-30T03:51:25.719Z,94993.31
2022-07-30T03:54:00.866Z,94985.84
2022-07-30T03:56:31.382Z,94985.00
2022-07-30T03:59:08.252Z,94980.00
2022-07-30T04:01:38.819Z,94987.38
2022-07-30T04:04:11.912Z,94969.94
2022-07-30T04:06:40.541Z,94992.97
2022-07-30T04:09:12.344Z,94991.41
2022-07-30T04:11:41.223Z,94983.72
2022-07-30T04:14:11.167Z,94991.28
2022-07-30T04:17:04.068Z,94995.44
2022-07-30T04:19:36.758Z,94990.38
2022-07-30T04:22:06.302Z,94988.22
2022-07-30T04:24:36.272Z,95003.06
2022-07-30T04:27:05.181Z,94994.50
2022-07-30T04:29:32.420Z,94997.53
2022-07-30T04:31:59.751Z,94996.78
2022-07-30T04:34:49.634Z,95006.63
2022-07-30T04:37:23.900Z,95006.50
2022-07-30T04:39:54.856Z,94993.59
2022-07-30T04:42:22.184Z,95004.47
2022-07-30T04:44:58.992Z,95000.00
2022-07-30T04:47:28.557Z,95000.13
2022-07-30T04:50:18.090Z,95000.03
2022-07-30T04:52:46.641Z,95001.59
2022-07-30T04:55:20.764Z,94990.44
2022-07-30T04:57:51.104Z,94987.78
2022-07-30T05:00:18.458Z,94987.59
2022-07-30T05:02:47.528Z,94999.88
2022-07-30T05:05:16.233Z,95001.59
2022-07-30T05:07:45.914Z,95005.47
2022-07-30T05:10:14.360Z,94987.28
2022-07-30T05:12:42.302Z,94996.56
2022-07-30T05:15:10.722Z,94996.47
2022-07-30T05:17:38.105Z,94992.97
2022-07-30T05:20:09.720Z,94991.19
2022-07-30T05:22:54.901Z,94993.69
2022-07-30T05:25:22.794Z,95003.00
2022-07-30T05:27:52.613Z,94998.53
2022-07-30T05:30:19.736Z,94998.88
2022-07-30T05:32:54.823Z,95004.88
2022-07-30T05:35:23.422Z,94996.69
2022-07-30T05:37:50.230Z,94997.97
2022-07-30T05:40:19.052Z,95002.84
2022-07-30T05:43:21.246Z,94982.41
2022-07-30T05:45:48.139Z,95008.09
2022-07-30T05:48:14.996Z,95007.03
2022-07-30T05:50:41.807Z,95010.53
2022-07-30T05:53:08.609Z,95007.09
2022-07-30T05:56:01.255Z,95008.81
2022-07-30T05:58:57.325Z,95016.81
2022-07-30T06:01:44.312Z,95001.47
2022-07-30T06:04:17.789Z,95006.50
2022-07-30T06:06:48.623Z,95000.84
2022-07-30T06:09:16.116Z,94999.59
2022-07-30T06:11:42.882Z,95009.31
2022-07-30T06:14:09.959Z,95009.91
2022-07-30T06:16:37.398Z,95007.56
2022-07-30T06:19:04.565Z,95022.09
2022-07-30T06:22:05.878Z,95018.75
2022-07-30T06:24:30.665Z,95014.16
2022-07-30T06:27:04.636Z,95006.56
2022-07-30T06:29:31.732Z,95006.97
2022-07-30T06:31:59.187Z,94999.22
2022-07-30T06:34:26.122Z,94998.19
2022-07-30T06:36:53.789Z,95003.13
2022-07-30T06:39:55.997Z,95007.06
2022-07-30T06:42:08.515Z,95006.81
2022-07-30T06:45:01.338Z,95001.59
2022-07-30T06:47:43.555Z,95010.06
2022-07-30T06:50:10.340Z,95004.59
2022-07-30T06:52:38.607Z,95000.66
2022-07-30T06:55:06.011Z,95005.47
2022-07-30T06:57:42.451Z,95005.63
2022-07-30T07:00:21.025Z,95001.38
2022-07-30T07:02:47.909Z,95005.38
2022-07-30T07:05:18.035Z,95000.47
2022-07-30T07:07:58.168Z,95010.31
2022-07-30T07:10:28.834Z,95006.34
2022-07-30T07:13:07.336Z,95003.78
2022-07-30T07:15:36.929Z,94997.88
2022-07-30T07:18:08.348Z,94971.56
2022-07-30T07:20:38.276Z,95001.66
2022-07-30T07:23:09.382Z,94998.06
2022-07-30T07:25:40.845Z,94986.78
2022-07-30T07:28:11.660Z,94985.50
2022-07-30T07:30:41.652Z,94977.03
2022-07-30T07:33:09.090Z,94978.13
2022-07-30T07:35:48.549Z,94971.41
2022-07-30T07:38:21.996Z,94961.75
2022-07-30T07:40:53.664Z,94969.75
2022-07-30T07:43:21.017Z,94980.84
2022-07-30T07:45:47.944Z,94980.09
2022-07-30T07:48:14.854Z,94981.56
2022-07-30T07:50:59.952Z,94980.38
2022-07-30T07:53:29.784Z,94981.59
2022-07-30T07:55:57.299Z,94977.25
2022-07-30T07:58:26.068Z,94978.09
2022-07-30T08:00:54.812Z,94976.53
2022-07-30T08:03:26.893Z,94976.16
2022-07-30T08:06:06.652Z,94974.03
2022-07-30T08:08:47.946Z,94972.84
2022-07-30T08:11:50.509Z,94961.84
2022-07-30T08:14:35.616Z,94960.00
2022-07-30T08:17:42.142Z,94968.75
2022-07-30T08:20:21.752Z,94965.06
2022-07-30T08:22:48.819Z,94961.13
2022-07-30T08:25:22.146Z,94961.38
2022-07-30T08:27:52.509Z,94958.09
2022-07-30T08:30:20.566Z,94945.56
2022-07-30T08:32:47.819Z,94949.56
2022-07-30T08:35:14.765Z,94958.25
2022-07-30T08:37:42.327Z,94963.69
2022-07-30T08:40:10.003Z,94956.97
2022-07-30T08:42:46.737Z,94947.19
2022-07-30T08:45:15.008Z,94958.75
2022-07-30T08:47:46.099Z,94954.47
2022-07-30T08:50:22.217Z,94952.03
2022-07-30T08:53:08.689Z,94949.13
2022-07-30T08:55:35.698Z,94948.53
2022-07-30T08:58:04.351Z,94950.34
2022-07-30T09:00:31.594Z,94950.72
2022-07-30T09:02:59.284Z,94948.88
2022-07-30T09:05:26.287Z,94942.00
2022-07-30T09:07:53.501Z,94936.66
2022-07-30T09:10:24.332Z,94929.06
2022-07-30T09:12:51.441Z,94931.56
2022-07-30T09:15:20.860Z,94925.94
2022-07-30T09:17:50.662Z,94932.25
2022-07-30T09:20:27.373Z,94918.47
2022-07-30T09:22:56.940Z,94918.97
2022-07-30T09:25:49.750Z,94921.00
2022-07-30T09:28:35.012Z,94918.03
2022-07-30T09:31:14.291Z,94917.94
2022-07-30T09:33:59.468Z,94916.50
2022-07-30T09:36:44.873Z,94900.09
2022-07-30T09:39:39.322Z,94912.63
2022-07-30T09:42:22.479Z,94912.72
2022-07-30T09:44:52.411Z,94904.72
2022-07-30T09:47:33.585Z,94906.31
2022-07-30T09:50:07.525Z,94899.78
2022-07-30T09:52:34.669Z,94906.75
2022-07-30T09:55:01.634Z,94891.28
2022-07-30T09:57:30.826Z,94903.66
2022-07-30T10:00:23.602Z,94900.97
2022-07-30T10:03:38.515Z,94894.38
2022-07-30T10:06:35.549Z,94888.94
2022-07-30T10:09:28.581Z,94887.38
2022-07-30T10:12:03.339Z,94891.16
2022-07-30T10:14:42.535Z,94887.38
2022-07-30T10:17:12.882Z,94888.81
2022-07-30T10:19:42.088Z,94870.25
2022-07-30T10:22:28.773Z,94870.91
2022-07-30T10:25:05.585Z,94875.88
2022-07-30T10:27:51.772Z,94875.16
2022-07-30T10:30:29.174Z,94859.25
2022-07-30T10:32:58.688Z,94864.53
2022-07-30T10:35:34.677Z,94859.69
2022-07-30T10:38:13.708Z,94844.72
2022-07-30T10:40:48.629Z,94846.06
2022-07-30T10:43:37.728Z,94849.00
2022-07-30T10:46:22.135Z,94850.13
2022-07-30T10:48:50.754Z,94849.03
2022-07-30T10:51:18.559Z,94840.31
2022-07-30T10:53:52.613Z,94836.53
2022-07-30T10:56:25.987Z,94834.88
2022-07-30T10:59:07.715Z,94837.03
2022-07-30T11:02:08.893Z,94842.91
2022-07-30T11:04:37.342Z,94826.91
2022-07-30T11:07:23.417Z,94832.09
2022-07-30T11:10:04.986Z,94831.06
2022-07-30T11:12:45.787Z,94831.59
2022-07-30T11:15:18.510Z,94814.44
2022-07-30T11:17:58.323Z,94823.22
2022-07-30T11:20:25.891Z,94804.78
2022-07-30T11:22:54.027Z,94811.78
2022-07-30T11:25:27.520Z,94808.84
2022-07-30T11:28:49.305Z,94801.63
2022-07-30T11:31:55.839Z,94803.75
2022-07-30T11:34:19.643Z,94796.28
2022-07-30T11:37:18.621Z,94800.66
2022-07-30T11:39:55.398Z,94792.69
2022-07-30T11:42:26.140Z,94799.28
2022-07-30T11:44:53.693Z,94802.03
2022-07-30T11:47:20.777Z,94786.50
2022-07-30T11:49:47.586Z,94794.47
2022-07-30T11:52:23.467Z,94787.75
2022-07-30T11:54:54.617Z,94781.28
2022-07-30T11:57:39.057Z,94766.75
2022-07-30T12:00:07.126Z,94775.13
2022-07-30T12:02:41.439Z,94769.97
2022-07-30T12:05:08.451Z,94764.81
2022-07-30T12:07:35.467Z,94761.84
2022-07-30T12:10:27.000Z,94765.88
2022-07-30T12:13:08.055Z,94762.63
2022-07-30T12:15:37.845Z,94749.69
2022-07-30T12:18:25.487Z,94762.28
2022-07-30T12:21:02.657Z,94740.81
2022-07-30T12:23:30.989Z,94748.84
2022-07-30T12:25:58.947Z,94745.09
2022-07-30T12:28:28.443Z,94737.25
2022-07-30T12:30:56.583Z,94740.53
2022-07-30T12:33:24.237Z,94737.59
2022-07-30T12:35:53.842Z,94725.31
2022-07-30T12:38:22.902Z,94725.88
2022-07-30T12:41:00.224Z,94708.00
2022-07-30T12:43:54.259Z,94708.69
2022-07-30T12:46:22.101Z,94703.59
2022-07-30T12:48:57.872Z,94698.88
2022-07-30T12:51:29.131Z,94697.84
2022-07-30T12:53:57.300Z,94688.31
2022-07-30T12:56:29.628Z,94699.72
2022-07-30T12:58:59.988Z,94694.06
2022-07-30T13:01:44.315Z,94684.97
2022-07-30T13:04:12.408Z,94685.97
2022-07-30T13:06:40.893Z,94672.94
2022-07-30T13:09:17.792Z,94665.66
2022-07-30T13:11:48.531Z,94664.25
2022-07-30T13:14:17.503Z,94664.78
2022-07-30T13:16:44.489Z,94657.41
2022-07-30T13:19:12.259Z,94666.69
2022-07-30T13:21:40.149Z,94667.84
2022-07-30T13:24:18.263Z,94660.38
2022-07-30T13:26:45.958Z,94659.81
2022-07-30T13:29:13.711Z,94650.66
2022-07-30T13:31:42.509Z,94666.09
2022-07-30T13:34:11.567Z,94670.16
2022-07-30T13:36:38.417Z,94651.47
2022-07-30T13:39:05.590Z,94663.78
2022-07-30T13:41:33.332Z,94653.19
2022-07-30T13:44:00.245Z,94659.53
2022-07-30T13:46:27.227Z,94649.31
2022-07-30T13:48:55.040Z,94651.34
2022-07-30T13:51:22.212Z,94667.09
2022-07-30T13:53:49.185Z,94648.50
2022-07-30T13:56:16.857Z,94655.41
2022-07-30T13:58:47.356Z,94656.59
2022-07-30T14:01:17.782Z,94651.63
2022-07-30T14:03:50.277Z,94657.63
2022-07-30T14:06:18.895Z,94654.78
2022-07-30T14:08:45.884Z,94654.53
2022-07-30T14:11:12.708Z,94655.59
2022-07-30T14:13:39.751Z,94642.66
2022-07-30T14:16:22.769Z,94651.16
2022-07-30T14:18:53.712Z,94637.84
2022-07-30T14:21:20.528Z,94641.63
2022-07-30T14:23:47.913Z,94647.63
2022-07-30T14:26:15.128Z,94640.72
2022-07-30T14:28:41.958Z,94637.44
2022-07-30T14:31:08.848Z,94637.88
2022-07-30T14:33:35.841Z,94627.84
2022-07-30T14:36:02.615Z,94634.28
2022-07-30T14:38:29.451Z,94616.56
2022-07-30T14:40:56.343Z,94626.69
2022-07-30T14:43:24.951Z,94609.88
2022-07-30T14:45:53.430Z,94622.19
2022-07-30T14:48:20.488Z,94629.75
2022-07-30T14:51:12.145Z,94613.38
2022-07-30T14:53:34.315Z,94614.16
2022-07-30T14:56:01.344Z,94608.84
2022-07-30T14:58:28.313Z,94612.56
2022-07-30T15:00:55.772Z,94607.34
2022-07-30T15:03:23.322Z,94604.72
2022-07-30T15:05:53.001Z,94597.13
2022-07-30T15:08:19.899Z,94605.28
2022-07-30T15:10:46.796Z,94603.06
2022-07-30T15:13:14.796Z,94600.84
2022-07-30T15:15:43.930Z,94595.44
2022-07-30T15:18:13.310Z,94602.78
2022-07-30T15:20:40.263Z,94601.16
2022-07-30T15:23:11.658Z,94589.84
2022-07-30T15:25:41.185Z,94588.84
2022-07-30T15:28:08.017Z,94591.63
2022-07-30T15:30:34.854Z,94590.28
2022-07-30T15:33:02.318Z,94618.78
2022-07-30T15:35:29.155Z,94596.31
2022-07-30T15:37:56.008Z,94608.44
2022-07-30T15:40:22.913Z,94595.00
2022-07-30T15:42:49.929Z,94601.97
2022-07-30T15:45:20.059Z,94594.44
2022-07-30T15:47:48.185Z,94590.06
2022-07-30T15:50:16.801Z,94595.94
2022-07-30T15:52:44.709Z,94590.03
2022-07-30T15:55:11.988Z,94595.75
2022-07-30T15:57:38.982Z,94596.06
2022-07-30T16:00:08.468Z,94598.81
2022-07-30T16:02:43.618Z,94598.22
2022-07-30T16:05:14.189Z,94595.56
2022-07-30T16:07:42.001Z,94586.78
2022-07-30T16:10:09.782Z,94596.00
2022-07-30T16:12:37.209Z,94589.94
2022-07-30T16:15:04.294Z,94601.47
2022-07-30T16:17:31.232Z,94597.25
2022-07-30T16:19:58.117Z,94598.50
2022-07-30T16:22:25.579Z,94600.06
2022-07-30T16:24:52.691Z,94602.56
2022-07-30T16:27:19.596Z,94591.63
2022-07-30T16:29:46.375Z,94599.28
2022-07-30T16:32:13.197Z,94591.84
2022-07-30T16:34:40.168Z,94601.16
2022-07-30T16:37:07.030Z,94604.63
2022-07-30T16:39:33.820Z,94609.09
2022-07-30T16:42:01.090Z,94612.88
2022-07-30T16:44:31.644Z,94611.78
2022-07-30T16:46:58.792Z,94597.75
2022-07-30T16:49:26.634Z,94595.56
2022-07-30T16:51:54.263Z,94590.88
2022-07-30T16:54:21.213Z,94597.53
2022-07-30T16:56:52.714Z,94613.78
2022-07-30T16:59:23.112Z,94622.19
2022-07-30T17:01:50.405Z,94625.63
2022-07-30T17:04:17.773Z,94614.84
2022-07-30T17:06:44.763Z,94581.38
2022-07-30T17:09:15.853Z,94636.28
2022-07-30T17:11:46.698Z,94640.28
2022-07-30T17:14:15.187Z,94653.63
2022-07-30T17:16:43.005Z,94659.66
2022-07-30T17:19:09.987Z,94662.31
2022-07-30T17:21:38.195Z,94648.31
2022-07-30T17:24:11.106Z,94655.91
2022-07-30T17:26:43.428Z,94645.22
2022-07-30T17:29:14.699Z,94661.66
2022-07-30T17:31:45.720Z,94653.16
2022-07-30T17:34:14.874Z,94655.56
2022-07-30T17:36:45.884Z,94655.88
2022-07-30T17:40:18.800Z,94663.66
2022-07-30T17:42:13.324Z,94665.78
2022-07-30T17:44:42.636Z,94687.09
2022-07-30T17:47:14.388Z,94705.66
2022-07-30T17:49:42.162Z,94700.47
2022-07-30T17:52:09.279Z,94696.56
2022-07-30T17:54:36.145Z,94687.53
2022-07-30T17:57:03.049Z,94687.47
2022-07-30T17:59:30.128Z,94691.25
2022-07-30T18:01:59.880Z,94676.09
2022-07-30T18:04:27.365Z,94679.41
2022-07-30T18:06:54.260Z,94678.63
2022-07-30T18:09:21.290Z,94676.94
2022-07-30T18:11:49.060Z,94669.94
2022-07-30T18:14:16.086Z,94672.13
2022-07-30T18:16:43.066Z,94681.97
2022-07-30T18:19:22.582Z,94680.28
2022-07-30T18:21:56.604Z,94681.56
2022-07-30T18:24:24.762Z,94688.72
2022-07-30T18:26:52.021Z,94707.34
2022-07-30T18:29:18.991Z,94723.31
2022-07-30T18:31:47.989Z,94751.63
2022-07-30T18:34:15.154Z,94797.13
2022-07-30T18:36:42.256Z,94824.38
2022-07-30T18:39:09.025Z,94827.25
2022-07-30T18:41:35.843Z,94867.69
2022-07-30T18:44:02.719Z,94845.44
2022-07-30T18:46:29.593Z,94875.47
2022-07-30T18:48:57.063Z,94868.06
2022-07-30T18:51:25.380Z,94895.56
2022-07-30T18:53:54.824Z,94891.75
2022-07-30T18:56:21.728Z,94888.59
2022-07-30T18:58:48.739Z,94916.16
2022-07-30T19:01:18.550Z,94920.28
2022-07-30T19:03:46.368Z,94943.53
2022-07-30T19:06:13.224Z,94948.38
2022-07-30T19:08:39.981Z,94957.94
2022-07-30T19:11:07.013Z,94965.91
2022-07-30T19:13:33.885Z,94960.34
2022-07-30T19:16:00.741Z,94965.69
2022-07-30T19:18:27.653Z,94984.97
2022-07-30T19:20:54.547Z,94996.06
2022-07-30T19:23:21.552Z,95007.41
2022-07-30T19:25:48.385Z,95009.81
2022-07-30T19:28:17.183Z,95023.34
2022-07-30T19:30:44.273Z,95041.25
2022-07-30T19:33:15.640Z,95045.75
2022-07-30T19:35:43.188Z,95050.53
2022-07-30T19:38:11.864Z,95046.34
2022-07-30T19:40:42.358Z,95059.25
2022-07-30T19:43:10.332Z,95061.16
2022-07-30T19:45:47.592Z,95061.22
2022-07-30T19:48:29.293Z,95070.75
2022-07-30T19:51:00.686Z,95085.00
2022-07-30T19:53:31.202Z,95094.50
2022-07-30T19:56:01.834Z,95105.56
2022-07-30T19:58:33.951Z,95114.84
2022-07-30T20:01:02.329Z,95125.63
2022-07-30T20:03:36.073Z,95123.22
2022-07-30T20:06:06.039Z,95104.53
2022-07-30T20:08:35.638Z,95107.38
2022-07-30T20:11:06.200Z,95102.91
2022-07-30T20:13:44.519Z,95099.75
2022-07-30T20:16:14.389Z,95081.78
2022-07-30T20:18:42.979Z,95068.09
2022-07-30T20:21:14.966Z,95061.72
2022-07-30T20:23:42.386Z,95075.16
2022-07-30T20:26:12.927Z,95065.66
2022-07-30T20:28:42.098Z,95056.88
2022-07-30T20:31:09.003Z,95038.38
2022-07-30T20:33:39.145Z,95035.97
2022-07-30T20:36:09.844Z,95003.53
2022-07-30T20:38:38.985Z,94996.09
2022-07-30T20:41:09.986Z,94977.38
2022-07-30T20:43:45.820Z,94947.47
2022-07-30T20:46:13.889Z,94924.38
2022-07-30T20:48:42.502Z,94889.53
2022-07-30T20:51:12.000Z,94868.97
2022-07-30T20:53:38.826Z,94850.66
2022-07-30T20:56:05.753Z,94846.25
2022-07-30T20:58:32.528Z,94852.34
2022-07-30T21:01:00.584Z,94856.03
2022-07-30T21:03:31.869Z,94846.63
2022-07-30T21:05:59.105Z,94826.09
2022-07-30T21:08:27.189Z,94833.03
2022-07-30T21:10:55.475Z,94820.03
2022-07-30T21:13:25.087Z,94840.44
2022-07-30T21:16:01.778Z,94831.50
2022-07-30T21:18:29.565Z,94810.94
2022-07-30T21:20:57.697Z,94819.34
2022-07-30T21:23:25.206Z,94823.84
2022-07-30T21:26:00.492Z,94833.53
2022-07-30T21:28:35.194Z,94827.75
2022-07-30T21:31:04.065Z,94818.81
2022-07-30T21:33:37.845Z,94814.31
2022-07-30T21:36:10.214Z,94811.13
2022-07-30T21:38:39.116Z,94805.66
2022-07-30T21:41:14.332Z,94811.41
2022-07-30T21:43:44.012Z,94821.25
2022-07-30T21:46:11.324Z,94812.41
2022-07-30T21:48:38.155Z,94819.94
2022-07-30T21:51:06.830Z,94799.25
2022-07-30T21:53:45.101Z,94810.25
2022-07-30T21:56:13.890Z,94811.75
2022-07-30T21:58:41.599Z,94813.28
2022-07-30T22:01:16.214Z,94780.66
2022-07-30T22:04:04.762Z,94777.38
2022-07-30T22:06:39.184Z,94768.75
2022-07-30T22:09:18.585Z,94786.13
2022-07-30T22:11:55.880Z,94800.75
2022-07-30T22:14:23.192Z,94814.44
2022-07-30T22:16:52.704Z,94837.53
2022-07-30T22:19:21.897Z,94846.97
2022-07-30T22:21:50.942Z,94834.28
2022-07-30T22:24:29.853Z,94816.66
2022-07-30T22:27:12.463Z,94813.06
2022-07-30T22:29:43.397Z,94813.63
2022-07-30T22:32:12.121Z,94817.31
2022-07-30T22:34:39.380Z,94804.28
2022-07-30T22:37:09.237Z,94811.09
2022-07-30T22:39:50.534Z,94820.16
2022-07-30T22:42:24.354Z,94802.84
2022-07-30T22:44:52.439Z,94822.75
2022-07-30T22:50:08.107Z,94821.38
2022-07-30T22:52:52.772Z,94826.31
2022-07-30T22:55:27.047Z,94824.97
2022-07-30T22:57:53.944Z,94822.09
2022-07-30T23:00:27.906Z,94820.59
2022-07-30T23:02:56.234Z,94830.00
2022-07-30T23:05:23.588Z,94835.28
2022-07-30T23:07:51.140Z,94832.16
2022-07-30T23:10:20.677Z,94835.34
2022-07-30T23:12:30.469Z,94829.00
2022-07-30T23:12:53.345Z,94829.78
2022-07-30T23:15:20.454Z,94815.38
2022-07-30T23:17:47.914Z,94814.75
2022-07-30T23:20:17.158Z,94809.47
2022-07-30T23:22:44.236Z,94798.91
2022-07-30T23:25:11.889Z,94784.84
2022-07-30T23:27:39.919Z,94804.78
2022-07-30T23:30:08.435Z,94800.56
2022-07-30T23:32:35.809Z,94803.19
2022-07-30T23:35:02.944Z,94800.06
2022-07-30T23:37:29.746Z,94792.97
2022-07-30T23:40:14.961Z,94798.47
2022-07-30T23:42:41.766Z,94802.19
2022-07-30T23:45:08.933Z,94799.56
2022-07-30T23:48:00.549Z,94811.16
2022-07-30T23:50:22.604Z,94815.44
2022-07-30T23:52:49.345Z,94820.25
2022-07-30T23:55:17.315Z,94817.66
2022-07-30T23:57:44.290Z,94816.13
